createdAt,value
2022-10-10T00:01:41.180Z,65.64
2022-10-10T00:06:45.556Z,65.54
2022-10-10T00:11:48.414Z,65.69
2022-10-10T00:16:51.173Z,65.97
2022-10-10T00:21:55.102Z,65.83
2022-10-10T00:26:57.957Z,65.95
2022-10-10T00:32:00.760Z,66.05
2022-10-10T00:37:04.704Z,66.23
2022-10-10T00:42:07.630Z,66.24
2022-10-10T00:47:11.011Z,66.09
2022-10-10T00:52:15.153Z,66.04
2022-10-10T00:57:17.957Z,66.01
2022-10-10T01:02:20.573Z,66.15
2022-10-10T01:07:28.576Z,66.25
2022-10-10T01:12:39.036Z,66.28
2022-10-10T01:17:47.139Z,66.77
2022-10-10T01:23:03.718Z,67.03
2022-10-10T01:28:20.829Z,67.14
2022-10-10T01:33:30.438Z,67.45
2022-10-10T01:38:39.539Z,67.58
2022-10-10T01:43:43.731Z,67.77
2022-10-10T01:48:50.174Z,67.95
2022-10-10T01:54:02.164Z,68.27
2022-10-10T01:59:16.062Z,68.29
2022-10-10T02:04:24.013Z,68.33
2022-10-10T02:09:32.527Z,68.60
2022-10-10T02:14:42.002Z,68.40
2022-10-10T02:19:49.598Z,68.13
2022-10-10T02:24:53.815Z,68.07
2022-10-10T02:30:00.366Z,67.80
2022-10-10T02:35:09.276Z,68.15
2022-10-10T02:40:15.878Z,67.54
2022-10-10T02:45:21.016Z,67.25
2022-10-10T02:50:24.481Z,66.91
2022-10-10T02:55:27.881Z,66.98
2022-10-10T03:00:32.064Z,66.83
2022-10-10T03:05:34.903Z,66.60
2022-10-10T03:10:38.313Z,66.59
2022-10-10T03:15:42.486Z,66.79
2022-10-10T03:20:46.508Z,67.17
2022-10-10T03:25:49.449Z,67.25
2022-10-10T03:30:53.804Z,67.58
2022-10-10T03:35:56.564Z,67.88
2022-10-10T03:40:59.134Z,68.23
2022-10-10T03:46:03.325Z,68.50
2022-10-10T03:51:06.440Z,69.00
2022-10-10T03:56:09.314Z,69.19
2022-10-10T04:01:14.323Z,69.52
2022-10-10T04:06:17.353Z,69.17
2022-10-10T04:11:20.103Z,69.26
2022-10-10T04:16:24.073Z,69.37
2022-10-10T04:21:26.906Z,68.63
2022-10-10T04:26:29.713Z,68.50
2022-10-10T04:31:33.923Z,68.39
2022-10-10T04:36:36.837Z,68.43
2022-10-10T04:41:39.620Z,68.62
2022-10-10T04:46:43.524Z,68.78
2022-10-10T04:51:46.277Z,68.63
2022-10-10T04:56:48.862Z,69.20
2022-10-10T05:01:53.060Z,69.46
2022-10-10T05:06:55.908Z,69.54
2022-10-10T05:11:58.711Z,69.78
2022-10-10T05:17:02.642Z,70.04
2022-10-10T05:22:05.469Z,70.17
2022-10-10T05:27:08.038Z,70.04
2022-10-10T05:32:12.227Z,70.32
2022-10-10T05:37:15.110Z,70.21
2022-10-10T05:42:17.933Z,70.59
2022-10-10T05:47:26.756Z,70.82
2022-10-10T05:52:31.137Z,70.58
2022-10-10T05:57:33.886Z,70.65
2022-10-10T06:02:38.091Z,70.58
2022-10-10T06:08:03.544Z,70.56
2022-10-10T06:13:03.837Z,69.74
2022-10-10T06:18:08.988Z,68.79
2022-10-10T06:23:11.760Z,67.84
2022-10-10T06:28:14.419Z,67.16
2022-10-10T06:33:19.658Z,66.76
2022-10-10T06:38:22.484Z,65.54
2022-10-10T06:43:25.061Z,64.75
2022-10-10T06:48:31.341Z,64.24
2022-10-10T06:53:34.668Z,63.31
2022-10-10T06:58:37.459Z,62.84
2022-10-10T07:03:41.497Z,61.50
2022-10-10T07:08:44.288Z,60.75
2022-10-10T07:13:47.176Z,60.38
2022-10-10T07:18:51.690Z,59.33
2022-10-10T07:23:54.582Z,58.55
2022-10-10T07:28:57.460Z,58.16
2022-10-10T07:34:01.764Z,57.25
2022-10-10T07:39:04.728Z,57.14
2022-10-10T07:44:07.481Z,57.39
2022-10-10T07:49:11.434Z,56.40
2022-10-10T07:54:14.257Z,55.93
2022-10-10T07:59:17.093Z,54.79
2022-10-10T08:04:21.635Z,54.66
2022-10-10T08:09:25.248Z,53.40
2022-10-10T08:14:28.218Z,53.40
2022-10-10T08:19:32.387Z,53.13
2022-10-10T08:24:35.249Z,51.93
2022-10-10T08:29:37.984Z,52.75
2022-10-10T08:34:42.115Z,52.89
2022-10-10T08:39:44.827Z,52.56
2022-10-10T08:44:52.824Z,51.93
2022-10-10T08:50:01.817Z,51.46
2022-10-10T08:55:13.010Z,50.61
2022-10-10T09:00:19.982Z,49.61
2022-10-10T09:05:37.034Z,50.05
2022-10-10T09:10:50.716Z,49.84
2022-10-10T09:15:58.911Z,49.49
2022-10-10T09:21:09.788Z,50.55
2022-10-10T09:26:14.640Z,51.78
2022-10-10T09:31:20.188Z,52.04
2022-10-10T09:36:28.130Z,52.44
2022-10-10T09:41:36.772Z,53.27
2022-10-10T09:46:39.831Z,54.83
2022-10-10T09:51:44.207Z,54.52
2022-10-10T09:56:51.644Z,54.71
2022-10-10T10:02:03.503Z,54.26
2022-10-10T10:07:18.825Z,53.02
2022-10-10T10:12:24.307Z,52.94
2022-10-10T10:17:27.338Z,53.04
2022-10-10T10:22:38.410Z,52.87
2022-10-10T10:27:41.201Z,51.03
2022-10-10T10:32:54.489Z,50.38
2022-10-10T10:38:19.385Z,49.96
2022-10-10T10:43:38.902Z,46.63
2022-10-10T10:48:46.003Z,44.98
2022-10-10T10:53:55.700Z,44.85
2022-10-10T11:05:20.137Z,42.48
2022-10-10T11:10:25.638Z,41.21
2022-10-10T11:16:01.788Z,40.30
2022-10-10T11:21:06.216Z,41.96
2022-10-10T11:26:17.734Z,43.58
2022-10-10T11:31:25.034Z,42.69
2022-10-10T11:36:31.270Z,42.26
2022-10-10T11:41:39.094Z,43.74
2022-10-10T11:46:47.155Z,43.50
2022-10-10T11:52:31.951Z,43.76
2022-10-10T11:57:37.906Z,42.57
2022-10-10T12:02:42.266Z,42.41
2022-10-10T12:08:00.616Z,42.43
2022-10-10T12:13:26.068Z,43.82
2022-10-10T12:18:39.092Z,43.96
2022-10-10T12:23:43.227Z,41.92
2022-10-10T12:29:05.574Z,40.31
2022-10-10T12:34:16.485Z,40.59
2022-10-10T12:39:37.747Z,42.90
2022-10-10T12:44:47.275Z,42.43
2022-10-10T12:49:50.736Z,40.38
2022-10-10T12:54:55.267Z,41.47
2022-10-10T13:00:04.707Z,42.47
2022-10-10T13:05:11.317Z,44.72
2022-10-10T13:10:23.485Z,45.83
2022-10-10T13:15:27.737Z,44.84
2022-10-10T13:20:35.621Z,45.45
2022-10-10T13:25:40.367Z,43.44
2022-10-10T13:30:45.396Z,43.82
2022-10-10T13:35:49.727Z,43.69
2022-10-10T13:40:53.439Z,43.50
2022-10-10T13:45:59.891Z,42.95
2022-10-10T13:51:05.951Z,44.92
2022-10-10T13:56:13.831Z,45.91
2022-10-10T14:01:31.738Z,46.16
2022-10-10T14:06:35.690Z,44.00
2022-10-10T14:11:38.458Z,43.95
2022-10-10T14:16:42.595Z,45.21
2022-10-10T14:21:45.309Z,44.91
2022-10-10T14:26:48.172Z,45.22
2022-10-10T14:31:52.301Z,44.70
2022-10-10T14:36:55.126Z,45.44
2022-10-10T14:41:58.580Z,46.25
2022-10-10T14:47:02.694Z,46.21
2022-10-10T14:52:05.549Z,46.76
2022-10-10T14:57:10.296Z,46.25
2022-10-10T15:02:14.684Z,46.69
2022-10-10T15:07:17.953Z,47.51
2022-10-10T15:12:20.708Z,48.02
2022-10-10T15:17:27.037Z,47.56
2022-10-10T15:22:30.256Z,49.02
2022-10-10T15:27:33.268Z,48.91
2022-10-10T15:32:40.619Z,48.79
2022-10-10T15:37:43.784Z,48.64
2022-10-10T15:42:46.512Z,48.76
2022-10-10T15:47:50.630Z,49.02
2022-10-10T15:52:53.345Z,49.92
2022-10-10T15:57:56.140Z,50.63
2022-10-10T16:03:00.262Z,50.32
2022-10-10T16:08:03.090Z,51.58
2022-10-10T16:13:06.025Z,55.89
2022-10-10T16:18:10.363Z,59.70
2022-10-10T16:23:13.193Z,59.60
2022-10-10T16:28:16.021Z,58.95
2022-10-10T16:33:20.121Z,58.80
2022-10-10T16:38:22.881Z,58.16
2022-10-10T16:43:25.704Z,59.54
2022-10-10T16:48:31.195Z,61.92
2022-10-10T16:53:34.414Z,68.61
2022-10-10T16:58:39.537Z,72.45
2022-10-10T17:03:44.049Z,75.28
2022-10-10T17:08:47.928Z,78.62
2022-10-10T17:13:51.851Z,79.17
2022-10-10T17:18:56.305Z,80.94
2022-10-10T17:23:59.296Z,81.88
2022-10-10T17:29:52.325Z,81.71
2022-10-10T17:34:56.559Z,82.32
2022-10-10T17:39:59.661Z,82.49
2022-10-10T17:45:02.715Z,82.25
2022-10-10T17:50:08.629Z,82.84
2022-10-10T17:55:11.372Z,83.73
2022-10-10T18:00:15.232Z,82.80
2022-10-10T18:05:19.385Z,83.72
2022-10-10T18:10:22.155Z,84.71
2022-10-10T18:15:25.033Z,86.15
2022-10-10T18:20:29.269Z,82.21
2022-10-10T18:25:32.353Z,79.90
2022-10-10T18:30:35.085Z,79.18
2022-10-10T18:35:42.477Z,78.53
2022-10-10T18:40:45.210Z,78.00
2022-10-10T18:45:49.659Z,77.43
2022-10-10T18:50:53.794Z,76.25
2022-10-10T18:55:57.232Z,75.96
2022-10-10T19:01:01.252Z,75.48
2022-10-10T19:06:07.586Z,74.96
2022-10-10T19:11:20.344Z,75.19
2022-10-10T19:16:23.130Z,75.88
2022-10-10T19:21:28.303Z,75.90
2022-10-10T19:26:33.356Z,76.16
2022-10-10T19:31:37.246Z,77.28
2022-10-10T19:36:42.318Z,76.68
2022-10-10T19:41:45.172Z,76.49
2022-10-10T19:46:47.765Z,76.60
2022-10-10T19:51:54.086Z,76.81
2022-10-10T19:56:57.116Z,77.13
2022-10-10T20:01:59.916Z,77.61
2022-10-10T20:07:04.080Z,77.42
2022-10-10T20:12:09.074Z,77.68
2022-10-10T20:17:12.722Z,78.05
2022-10-10T20:22:16.877Z,78.20
2022-10-10T20:27:19.649Z,78.17
2022-10-10T20:32:22.267Z,78.42
2022-10-10T20:37:26.344Z,78.84
2022-10-10T20:42:29.052Z,78.60
2022-10-10T20:47:31.640Z,79.12
2022-10-10T20:52:35.884Z,79.06
2022-10-10T20:57:38.641Z,79.74
2022-10-10T21:02:41.252Z,79.65
2022-10-10T21:07:45.965Z,79.89
2022-10-10T21:12:48.737Z,81.00
2022-10-10T21:17:51.338Z,79.88
2022-10-10T21:22:55.951Z,80.27
2022-10-10T21:27:58.743Z,79.60
2022-10-10T21:33:01.386Z,79.69
2022-10-10T21:38:05.533Z,80.70
2022-10-10T21:43:08.286Z,78.90
2022-10-10T21:48:11.748Z,79.36
2022-10-10T21:53:15.875Z,79.04
2022-10-10T21:58:18.747Z,80.63
2022-10-10T22:03:21.340Z,80.29
2022-10-10T22:08:25.439Z,79.44
2022-10-10T22:13:28.573Z,79.92
2022-10-10T22:18:32.128Z,81.09
2022-10-10T22:23:36.553Z,80.65
2022-10-10T22:28:39.871Z,81.70
2022-10-10T22:33:43.042Z,81.77
2022-10-10T22:38:47.173Z,81.74
2022-10-10T22:43:50.554Z,81.63
2022-10-10T22:48:53.782Z,81.47
2022-10-10T22:53:57.937Z,82.62
2022-10-10T22:59:00.683Z,83.71
2022-10-10T23:04:09.309Z,82.11
2022-10-10T23:09:14.212Z,81.51
2022-10-10T23:14:18.603Z,82.13
2022-10-10T23:19:21.330Z,82.36
2022-10-10T23:24:25.339Z,83.05
2022-10-10T23:29:28.082Z,83.12
2022-10-10T23:34:30.673Z,83.28
2022-10-10T23:39:34.812Z,83.65
2022-10-10T23:44:37.604Z,83.47
2022-10-10T23:49:40.174Z,83.41
2022-10-10T23:54:44.317Z,84.50
2022-10-10T23:59:47.112Z,83.79
